createdAt,value
2023-02-04T00:00:37.605Z,101237.88
2023-02-04T00:03:06.886Z,101233.87
2023-02-04T00:05:35.040Z,101250.47
2023-02-04T00:08:03.809Z,101261.34
2023-02-04T00:10:33.952Z,101273.31
2023-02-04T00:13:02.148Z,101268.19
2023-02-04T00:15:30.808Z,101269.91
2023-02-04T00:17:59.083Z,101267.69
2023-02-04T00:20:27.097Z,101286.69
2023-02-04T00:22:55.182Z,101299.47
2023-02-04T00:25:23.567Z,101302.84
2023-02-04T00:27:52.998Z,101310.97
2023-02-04T00:30:21.211Z,101322.81
2023-02-04T00:32:51.234Z,101335.25
2023-02-04T00:35:19.421Z,101348.19
2023-02-04T00:37:47.521Z,101348.09
2023-02-04T00:40:16.098Z,101352.16
2023-02-04T00:42:44.079Z,101379.06
2023-02-04T00:45:14.394Z,101384.59
2023-02-04T00:47:42.692Z,101386.59
2023-02-04T00:50:11.194Z,101390.00
2023-02-04T00:52:39.134Z,101390.94
2023-02-04T00:55:10.392Z,101396.25
2023-02-04T00:57:38.446Z,101417.06
2023-02-04T01:00:07.753Z,101435.03
2023-02-04T01:02:37.677Z,101432.38
2023-02-04T01:05:05.851Z,101441.62
2023-02-04T01:07:34.331Z,101456.00
2023-02-04T01:10:02.628Z,101464.75
2023-02-04T01:12:30.809Z,101467.63
2023-02-04T01:14:59.421Z,101467.37
2023-02-04T01:17:27.899Z,101475.91
2023-02-04T01:19:57.291Z,101483.84
2023-02-04T01:22:25.289Z,101486.88
2023-02-04T01:24:54.172Z,101495.63
2023-02-04T01:27:37.096Z,101502.91
2023-02-04T01:30:06.922Z,101522.09
2023-02-04T01:32:35.169Z,101532.75
2023-02-04T01:35:04.733Z,101539.91
2023-02-04T01:37:33.907Z,101549.22
2023-02-04T01:40:01.968Z,101570.25
2023-02-04T01:42:30.169Z,101560.09
2023-02-04T01:44:58.532Z,101557.28
2023-02-04T01:47:26.855Z,101576.34
2023-02-04T01:49:56.629Z,101585.31
2023-02-04T01:52:26.569Z,101586.47
2023-02-04T01:54:54.933Z,101588.94
2023-02-04T01:57:24.440Z,101599.28
2023-02-04T01:59:55.796Z,101614.59
2023-02-04T02:02:41.770Z,101616.22
2023-02-04T02:05:13.660Z,101620.56
2023-02-04T02:07:43.479Z,101623.16
2023-02-04T02:10:14.458Z,101631.62
2023-02-04T02:12:44.285Z,101646.81
2023-02-04T02:15:14.252Z,101656.91
2023-02-04T02:17:43.247Z,101659.84
2023-02-04T02:20:14.890Z,101670.53
2023-02-04T02:22:53.704Z,101676.94
2023-02-04T02:25:23.138Z,101691.91
2023-02-04T02:27:51.722Z,101697.63
2023-02-04T02:30:20.418Z,101708.56
2023-02-04T02:32:49.709Z,101714.84
2023-02-04T02:35:18.341Z,101725.63
2023-02-04T02:37:46.497Z,101728.09
2023-02-04T02:40:16.083Z,101738.75
2023-02-04T02:42:49.198Z,101744.72
2023-02-04T02:45:23.232Z,101763.28
2023-02-04T02:47:52.090Z,101767.78
2023-02-04T02:50:24.445Z,101775.78
2023-02-04T02:52:53.680Z,101782.81
2023-02-04T02:55:24.430Z,101794.16
2023-02-04T02:57:55.526Z,101798.66
2023-02-04T03:00:26.064Z,101799.44
2023-02-04T03:03:00.719Z,101814.03
2023-02-04T03:05:31.942Z,101818.41
2023-02-04T03:08:00.751Z,101814.53
2023-02-04T03:10:30.009Z,101830.63
2023-02-04T03:13:00.891Z,101834.75
2023-02-04T03:15:31.402Z,101827.69
2023-02-04T03:18:00.433Z,101832.88
2023-02-04T03:20:31.035Z,101838.91
2023-02-04T03:22:59.587Z,101842.34
2023-02-04T03:25:28.873Z,101847.91
2023-02-04T03:28:00.476Z,101854.88
2023-02-04T03:30:29.445Z,101860.06
2023-02-04T03:32:58.376Z,101860.06
2023-02-04T03:35:26.568Z,101862.59
2023-02-04T03:37:55.071Z,101870.53
2023-02-04T03:40:23.147Z,101878.50
2023-02-04T03:42:51.122Z,101889.00
2023-02-04T03:45:21.336Z,101896.94
2023-02-04T03:47:49.352Z,101909.25
2023-02-04T03:50:17.411Z,101905.72
2023-02-04T03:52:45.898Z,101914.28
2023-02-04T03:55:13.980Z,101917.59
2023-02-04T03:57:41.969Z,101922.34
2023-02-04T04:00:11.563Z,101940.00
2023-02-04T04:02:41.635Z,101944.50
2023-02-04T04:05:10.762Z,101957.75
2023-02-04T04:07:39.101Z,101964.88
2023-02-04T04:10:07.604Z,101968.22
2023-02-04T04:12:36.222Z,101976.13
2023-02-04T04:15:04.808Z,101980.38
2023-02-04T04:17:32.799Z,101985.84
2023-02-04T04:20:02.499Z,101990.31
2023-02-04T04:22:30.691Z,101994.59
2023-02-04T04:24:58.675Z,101998.88
2023-02-04T04:27:27.073Z,102008.63
2023-02-04T04:29:55.055Z,102014.81
2023-02-04T04:32:23.431Z,102015.78
2023-02-04T04:34:51.706Z,102026.41
2023-02-04T04:37:20.973Z,102037.13
2023-02-04T04:39:49.007Z,102043.25
2023-02-04T04:42:17.243Z,102046.84
2023-02-04T04:44:45.615Z,102048.66
2023-02-04T04:47:13.603Z,102048.78
2023-02-04T04:49:42.316Z,102055.91
2023-02-04T04:52:10.909Z,102064.97
2023-02-04T04:54:40.289Z,102064.13
2023-02-04T04:57:08.525Z,102075.03
2023-02-04T04:59:36.443Z,102089.59
2023-02-04T05:02:04.465Z,102087.75
2023-02-04T05:04:32.766Z,102097.38
2023-02-04T05:07:00.684Z,102107.94
2023-02-04T05:09:28.653Z,102114.09
2023-02-04T05:11:58.193Z,102119.53
2023-02-04T05:14:26.278Z,102122.09
2023-02-04T05:16:54.296Z,102120.31
2023-02-04T05:19:22.488Z,102118.50
2023-02-04T05:21:50.508Z,102120.22
2023-02-04T05:24:18.534Z,102136.91
2023-02-04T05:26:46.848Z,102136.97
2023-02-04T05:29:16.146Z,102150.22
2023-02-04T05:31:44.123Z,102151.31
2023-02-04T05:34:12.395Z,102157.75
2023-02-04T05:36:40.475Z,102157.75
2023-02-04T05:39:08.455Z,102163.06
2023-02-04T05:41:36.630Z,102176.06
2023-02-04T05:44:04.823Z,102185.56
2023-02-04T05:46:34.120Z,102194.38
2023-02-04T05:49:02.372Z,102192.69
2023-02-04T05:51:30.344Z,102202.41
2023-02-04T05:53:58.314Z,102212.22
2023-02-04T05:56:26.635Z,102213.19
2023-02-04T05:58:54.796Z,102220.16
2023-02-04T06:01:22.757Z,102224.47
2023-02-04T06:03:52.496Z,102230.75
2023-02-04T06:06:20.448Z,102224.66
2023-02-04T06:08:48.337Z,102232.63
2023-02-04T06:11:16.804Z,102231.00
2023-02-04T06:13:44.845Z,102242.16
2023-02-04T06:16:14.852Z,102247.50
2023-02-04T06:18:43.223Z,102250.09
2023-02-04T06:21:12.496Z,102250.97
2023-02-04T06:23:40.480Z,102250.87
2023-02-04T06:26:08.744Z,102257.13
2023-02-04T06:28:36.818Z,102253.72
2023-02-04T06:31:05.398Z,102260.72
2023-02-04T06:33:33.708Z,102275.69
2023-02-04T06:36:01.819Z,102270.47
2023-02-04T06:38:31.514Z,102270.47
2023-02-04T06:40:59.830Z,102267.84
2023-02-04T06:43:28.047Z,102277.50
2023-02-04T06:45:56.227Z,102279.28
2023-02-04T06:48:24.659Z,102274.88
2023-02-04T06:50:52.606Z,102277.59
2023-02-04T06:53:20.590Z,102275.94
2023-02-04T06:55:50.268Z,102276.06
2023-02-04T06:58:18.291Z,102282.22
2023-02-04T07:00:46.226Z,102284.91
2023-02-04T07:03:14.497Z,102288.47
2023-02-04T07:05:42.577Z,102302.53
2023-02-04T07:08:10.468Z,102305.22
2023-02-04T07:10:38.743Z,102314.03
2023-02-04T07:13:08.162Z,102318.47
2023-02-04T07:15:36.323Z,102322.00
2023-02-04T07:18:05.040Z,102331.69
2023-02-04T07:20:33.578Z,102340.47
2023-02-04T07:23:01.909Z,102344.84
2023-02-04T07:25:30.283Z,102336.94
2023-02-04T07:27:59.388Z,102351.87
2023-02-04T07:30:28.791Z,102346.56
2023-02-04T07:32:57.104Z,102348.37
2023-02-04T07:35:25.290Z,102337.78
2023-02-04T07:37:53.292Z,102350.94
2023-02-04T07:40:22.247Z,102351.75
2023-02-04T07:42:50.260Z,102357.88
2023-02-04T07:45:18.785Z,102381.63
2023-02-04T07:47:48.591Z,102382.50
2023-02-04T07:50:17.489Z,102382.37
2023-02-04T07:52:45.663Z,102382.37
2023-02-04T07:55:14.057Z,102388.69
2023-02-04T07:57:42.228Z,102391.09
2023-02-04T08:00:14.136Z,102398.25
2023-02-04T08:02:42.816Z,102398.31
2023-02-04T08:05:12.387Z,102399.03
2023-02-04T08:07:40.592Z,102409.44
2023-02-04T08:10:10.327Z,102412.00
2023-02-04T08:12:38.393Z,102413.75
2023-02-04T08:15:08.478Z,102411.97
2023-02-04T08:17:37.164Z,102413.72
2023-02-04T08:20:05.641Z,102427.72
2023-02-04T08:22:35.360Z,102435.62
2023-02-04T08:25:05.303Z,102433.87
2023-02-04T08:27:33.571Z,102440.91
2023-02-04T08:30:01.761Z,102447.88
2023-02-04T08:32:31.266Z,102453.03
2023-02-04T08:34:59.446Z,102457.41
2023-02-04T08:37:27.524Z,102453.91
2023-02-04T08:39:57.240Z,102454.72
2023-02-04T08:42:25.428Z,102463.41
2023-02-04T08:44:53.423Z,102465.13
2023-02-04T08:47:21.727Z,102465.06
2023-02-04T08:49:49.835Z,102467.78
2023-02-04T08:52:17.816Z,102459.84
2023-02-04T08:54:48.146Z,102466.75
2023-02-04T08:57:17.589Z,102474.53
2023-02-04T08:59:46.162Z,102477.13
2023-02-04T09:02:14.430Z,102478.63
2023-02-04T09:04:42.628Z,102479.38
2023-02-04T09:07:11.066Z,102481.91
2023-02-04T09:09:39.126Z,102481.03
2023-02-04T09:12:07.309Z,102488.22
2023-02-04T09:14:36.921Z,102488.09
2023-02-04T09:17:06.076Z,102492.28
2023-02-04T09:19:34.105Z,102490.44
2023-02-04T09:22:02.449Z,102490.41
2023-02-04T09:24:30.523Z,102500.97
2023-02-04T09:26:58.531Z,102501.72
2023-02-04T09:29:26.875Z,102508.53
2023-02-04T09:31:56.343Z,102512.81
2023-02-04T09:34:24.668Z,102519.25
2023-02-04T09:36:53.373Z,102518.94
2023-02-04T09:39:21.562Z,102527.06
2023-02-04T09:41:49.986Z,102529.56
2023-02-04T09:44:21.349Z,102533.00
2023-02-04T09:46:51.739Z,102534.84
2023-02-04T09:49:21.751Z,102531.72
2023-02-04T09:51:50.966Z,102534.28
2023-02-04T09:54:20.850Z,102535.28
2023-02-04T09:56:49.132Z,102541.59
2023-02-04T09:59:18.903Z,102537.78
2023-02-04T10:01:49.569Z,102537.31
2023-02-04T10:04:17.856Z,102531.16
2023-02-04T10:06:47.451Z,102531.03
2023-02-04T10:09:17.910Z,102537.31
2023-02-04T10:11:49.046Z,102535.47
2023-02-04T10:14:21.056Z,102536.44
2023-02-04T10:16:57.213Z,102544.34
2023-02-04T10:19:28.586Z,102547.47
2023-02-04T10:21:58.925Z,102553.81
2023-02-04T10:24:30.721Z,102549.41
2023-02-04T10:27:09.341Z,102546.78
2023-02-04T10:29:37.952Z,102552.59
2023-02-04T10:32:06.304Z,102548.47
2023-02-04T10:34:37.901Z,102553.41
2023-02-04T10:37:21.184Z,102554.97
2023-02-04T10:39:49.995Z,102561.97
2023-02-04T10:42:23.495Z,102554.47
2023-02-04T10:44:52.167Z,102561.06
2023-02-04T10:47:22.327Z,102564.78
2023-02-04T10:49:55.624Z,102567.28
2023-02-04T10:52:28.384Z,102568.94
2023-02-04T10:54:55.637Z,102570.59
2023-02-04T10:57:27.498Z,102572.00
2023-02-04T10:59:58.866Z,102570.62
2023-02-04T11:02:41.577Z,102568.41
2023-02-04T11:05:14.478Z,102565.44
2023-02-04T11:07:45.581Z,102559.22
2023-02-04T11:10:16.335Z,102568.78
2023-02-04T11:12:47.743Z,102564.34
2023-02-04T11:15:38.668Z,102565.78
2023-02-04T11:18:09.102Z,102567.09
2023-02-04T11:20:39.867Z,102566.50
2023-02-04T11:23:18.263Z,102574.84
2023-02-04T11:25:46.396Z,102562.37
2023-02-04T11:28:16.046Z,102571.12
2023-02-04T11:30:44.285Z,102572.94
2023-02-04T11:33:24.905Z,102572.09
2023-02-04T11:36:04.597Z,102583.38
2023-02-04T11:38:34.977Z,102583.66
2023-02-04T11:41:03.894Z,102583.06
2023-02-04T11:43:35.549Z,102583.59
2023-02-04T11:46:08.488Z,102584.91
2023-02-04T11:48:37.425Z,102586.94
2023-02-04T11:51:13.983Z,102581.12
2023-02-04T11:53:43.782Z,102584.09
2023-02-04T11:56:19.016Z,102587.94
2023-02-04T11:58:48.575Z,102588.97
2023-02-04T12:01:21.463Z,102585.94
2023-02-04T12:03:51.835Z,102581.88
2023-02-04T12:06:24.141Z,102592.00
2023-02-04T12:08:54.365Z,102593.59
2023-02-04T12:11:30.404Z,102593.34
2023-02-04T12:14:00.811Z,102593.41
2023-02-04T12:16:29.019Z,102597.16
2023-02-04T12:18:57.094Z,102593.81
2023-02-04T12:21:25.532Z,102593.88
2023-02-04T12:23:54.884Z,102593.59
2023-02-04T12:26:22.966Z,102604.25
2023-02-04T12:28:51.487Z,102595.94
2023-02-04T12:31:20.329Z,102600.28
2023-02-04T12:33:48.735Z,102599.03
2023-02-04T12:36:17.588Z,102598.47
2023-02-04T12:38:46.325Z,102601.81
2023-02-04T12:41:15.850Z,102601.22
2023-02-04T12:43:44.138Z,102604.25
2023-02-04T12:46:12.317Z,102608.56
2023-02-04T12:48:41.176Z,102607.78
2023-02-04T12:51:09.610Z,102602.03
2023-02-04T12:53:37.576Z,102602.50
2023-02-04T12:56:06.428Z,102603.00
2023-02-04T12:58:36.040Z,102612.47
2023-02-04T13:01:04.692Z,102604.34
2023-02-04T13:03:33.241Z,102607.78
2023-02-04T13:06:01.527Z,102615.75
2023-02-04T13:08:29.549Z,102617.59
2023-02-04T13:10:57.582Z,102618.53
2023-02-04T13:13:25.956Z,102616.97
2023-02-04T13:15:55.513Z,102617.41
2023-02-04T13:18:23.743Z,102615.63
2023-02-04T13:20:52.139Z,102616.75
2023-02-04T13:23:20.411Z,102617.41
2023-02-04T13:25:48.409Z,102619.87
2023-02-04T13:28:16.670Z,102621.19
2023-02-04T13:30:44.709Z,102614.00
2023-02-04T13:33:14.087Z,102621.00
2023-02-04T13:35:42.352Z,102620.44
2023-02-04T13:38:10.702Z,102623.66
2023-02-04T13:40:39.516Z,102624.53
2023-02-04T13:43:07.794Z,102618.69
2023-02-04T13:45:36.133Z,102625.47
2023-02-04T13:48:04.445Z,102612.87
2023-02-04T13:50:34.416Z,102630.31
2023-02-04T13:53:02.648Z,102631.97
2023-02-04T13:55:31.291Z,102620.09
2023-02-04T13:57:59.842Z,102629.91
2023-02-04T14:00:27.924Z,102633.28
2023-02-04T14:02:56.735Z,102636.97
2023-02-04T14:05:24.891Z,102624.09
2023-02-04T14:07:54.280Z,102633.37
2023-02-04T14:10:24.875Z,102652.09
2023-02-04T14:12:53.244Z,102644.97
2023-02-04T14:15:21.572Z,102649.28
2023-02-04T14:17:49.913Z,102645.97
2023-02-04T14:20:18.239Z,102644.97
2023-02-04T14:22:46.274Z,102651.22
2023-02-04T14:25:15.992Z,102643.50
2023-02-04T14:27:44.029Z,102650.00
2023-02-04T14:30:18.225Z,102649.41
2023-02-04T14:32:46.521Z,102647.53
2023-02-04T14:35:15.653Z,102649.69
2023-02-04T14:37:43.822Z,102656.44
2023-02-04T14:40:14.042Z,102662.66
2023-02-04T14:42:43.356Z,102649.44
2023-02-04T14:45:13.330Z,102653.28
2023-02-04T14:47:42.180Z,102656.31
2023-02-04T14:50:14.370Z,102657.75
2023-02-04T14:52:42.676Z,102661.84
2023-02-04T14:55:11.902Z,102658.09
2023-02-04T14:57:40.178Z,102655.50
2023-02-04T15:00:14.222Z,102654.16
2023-02-04T15:02:42.652Z,102653.06
2023-02-04T15:05:11.579Z,102658.41
2023-02-04T15:07:39.784Z,102668.34
2023-02-04T15:10:08.138Z,102664.69
2023-02-04T15:12:36.736Z,102667.63
2023-02-04T15:15:05.387Z,102663.03
2023-02-04T15:17:34.811Z,102676.88
2023-02-04T15:20:04.258Z,102671.50
2023-02-04T15:22:32.267Z,102670.19
2023-02-04T15:25:00.274Z,102675.41
2023-02-04T15:27:28.464Z,102680.94
2023-02-04T15:29:56.484Z,102678.97
2023-02-04T15:32:24.610Z,102678.34
2023-02-04T15:34:54.136Z,102681.28
2023-02-04T15:37:22.132Z,102679.12
2023-02-04T15:39:50.188Z,102680.09
2023-02-04T15:42:18.387Z,102686.16
2023-02-04T15:44:46.336Z,102686.16
2023-02-04T15:47:14.318Z,102680.25
2023-02-04T15:49:42.603Z,102686.47
2023-02-04T15:52:19.569Z,102686.53
2023-02-04T15:54:51.450Z,102690.28
2023-02-04T15:57:19.500Z,102684.78
2023-02-04T15:59:47.837Z,102690.13
2023-02-04T16:02:16.316Z,102684.22
2023-02-04T16:04:45.533Z,102683.31
2023-02-04T16:07:14.889Z,102682.59
2023-02-04T16:09:43.818Z,102687.00
2023-02-04T16:12:12.099Z,102686.31
2023-02-04T16:14:40.050Z,102689.34
2023-02-04T16:17:09.660Z,102683.91
2023-02-04T16:19:37.847Z,102686.53
2023-02-04T16:22:06.359Z,102695.31
2023-02-04T16:24:35.764Z,102698.94
2023-02-04T16:27:04.379Z,102699.94
2023-02-04T16:29:32.483Z,102702.78
2023-02-04T16:32:00.723Z,102700.09
2023-02-04T16:34:29.412Z,102710.00
2023-02-04T16:37:08.437Z,102705.88
2023-02-04T16:39:39.438Z,102704.87
2023-02-04T16:42:08.872Z,102714.53
2023-02-04T16:44:37.623Z,102711.03
2023-02-04T16:47:07.229Z,102708.41
2023-02-04T16:49:35.944Z,102704.09
2023-02-04T16:52:05.290Z,102699.72
2023-02-04T16:54:34.536Z,102701.56
2023-02-04T16:57:04.462Z,102701.66
2023-02-04T16:59:33.387Z,102705.31
2023-02-04T17:02:01.481Z,102718.53
2023-02-04T17:04:30.528Z,102717.69
2023-02-04T17:07:00.406Z,102708.94
2023-02-04T17:09:28.385Z,102716.00
2023-02-04T17:11:56.317Z,102720.44
2023-02-04T17:14:25.965Z,102718.81
2023-02-04T17:16:53.975Z,102725.00
2023-02-04T17:19:22.370Z,102719.78
2023-02-04T17:21:50.642Z,102726.84
2023-02-04T17:24:18.727Z,102726.91
2023-02-04T17:26:46.712Z,102728.69
2023-02-04T17:29:17.281Z,102723.50
2023-02-04T17:31:46.732Z,102724.38
2023-02-04T17:34:15.048Z,102727.06
2023-02-04T17:36:43.021Z,102724.44
2023-02-04T17:39:11.005Z,102735.00
2023-02-04T17:41:39.288Z,102738.56
2023-02-04T17:44:07.475Z,102731.56
2023-02-04T17:46:35.675Z,102734.22
2023-02-04T17:49:05.230Z,102736.91
2023-02-04T17:51:33.188Z,102741.31
2023-02-04T17:54:01.328Z,102732.56
2023-02-04T17:56:29.672Z,102741.38
2023-02-04T17:58:58.147Z,102735.22
2023-02-04T18:01:26.317Z,102744.03
2023-02-04T18:03:55.021Z,102740.53
2023-02-04T18:06:28.455Z,102740.56
2023-02-04T18:09:01.849Z,102739.72
2023-02-04T18:11:32.989Z,102743.22
2023-02-04T18:14:06.499Z,102751.16
2023-02-04T18:16:36.792Z,102752.94
2023-02-04T18:19:18.325Z,102750.34
2023-02-04T18:21:49.065Z,102751.19
2023-02-04T18:24:19.592Z,102750.31
2023-02-04T18:26:49.885Z,102759.97
2023-02-04T18:29:33.633Z,102760.84
2023-02-04T18:32:03.937Z,102758.19
2023-02-04T18:34:36.615Z,102753.78
2023-02-04T18:37:32.764Z,102760.81
2023-02-04T18:40:23.638Z,102756.44
2023-02-04T18:43:02.598Z,102757.31
2023-02-04T18:45:33.465Z,102762.56
2023-02-04T18:48:07.216Z,102763.44
2023-02-04T18:50:36.708Z,102766.09
2023-02-04T18:53:20.697Z,102759.94
2023-02-04T18:55:51.203Z,102759.94
2023-02-04T18:58:29.416Z,102759.94
2023-02-04T19:01:00.476Z,102757.34
2023-02-04T19:03:30.925Z,102756.47
2023-02-04T19:06:00.500Z,102755.59
2023-02-04T19:08:33.337Z,102760.88
2023-02-04T19:11:01.652Z,102764.41
2023-02-04T19:13:39.958Z,102762.66
2023-02-04T19:16:21.669Z,102761.75
2023-02-04T19:18:50.569Z,102768.78
2023-02-04T19:21:25.959Z,102767.91
2023-02-04T19:24:00.553Z,102763.53
2023-02-04T19:26:33.102Z,102771.41
2023-02-04T19:29:01.710Z,102767.91
2023-02-04T19:31:35.247Z,102771.41
2023-02-04T19:34:22.428Z,102767.03
2023-02-04T19:36:50.634Z,102768.78
2023-02-04T19:39:30.731Z,102767.91
2023-02-04T19:41:58.952Z,102774.91
2023-02-04T19:44:41.801Z,102776.66
2023-02-04T19:47:23.365Z,102785.44
2023-02-04T19:49:52.288Z,102786.28
2023-02-04T19:52:36.163Z,102789.81
2023-02-04T19:55:35.384Z,102798.56
2023-02-04T19:58:16.317Z,102803.81
2023-02-04T20:00:47.545Z,102809.09
2023-02-04T20:03:34.237Z,102806.44
2023-02-04T20:06:20.706Z,102809.06
2023-02-04T20:08:52.600Z,102817.84
2023-02-04T20:11:50.042Z,102817.84
2023-02-04T20:14:25.905Z,102816.97
2023-02-04T20:16:57.598Z,102813.44
2023-02-04T20:19:33.534Z,102811.72
2023-02-04T20:22:33.004Z,102815.22
2023-02-04T20:25:43.140Z,102815.22
2023-02-04T20:28:34.357Z,102817.84
2023-02-04T20:31:04.430Z,102818.75
2023-02-04T20:33:45.062Z,102822.25
2023-02-04T20:36:38.253Z,102825.75
2023-02-04T20:39:36.888Z,102825.75
2023-02-04T20:42:39.033Z,102828.38
2023-02-04T20:45:29.749Z,102832.78
2023-02-04T20:48:01.032Z,102827.50
2023-02-04T20:50:43.561Z,102830.16
2023-02-04T20:53:21.983Z,102832.78
2023-02-04T20:55:52.297Z,102831.03
2023-02-04T20:58:22.731Z,102832.78
2023-02-04T21:00:56.627Z,102828.41
2023-02-04T21:03:28.236Z,102830.16
2023-02-04T21:05:58.678Z,102832.78
2023-02-04T21:08:45.548Z,102837.16
2023-02-04T21:11:13.830Z,102847.69
2023-02-04T21:13:42.110Z,102855.59
2023-02-04T21:16:11.642Z,102848.56
2023-02-04T21:18:39.730Z,102848.59
2023-02-04T21:21:10.161Z,102849.47
2023-02-04T21:23:38.128Z,102842.41
2023-02-04T21:26:07.090Z,102846.81
2023-02-04T21:28:35.364Z,102844.16
2023-02-04T21:31:03.560Z,102838.03
2023-02-04T21:33:33.067Z,102845.06
2023-02-04T21:36:01.463Z,102845.94
2023-02-04T21:38:29.612Z,102851.19
2023-02-04T21:40:57.616Z,102856.47
2023-02-04T21:43:26.089Z,102858.25
2023-02-04T21:45:54.057Z,102857.34
2023-02-04T21:48:22.076Z,102856.47
2023-02-04T21:50:51.868Z,102859.97
2023-02-04T21:53:19.843Z,102857.34
2023-02-04T21:55:47.831Z,102860.87
2023-02-04T21:58:16.109Z,102855.59
2023-02-04T22:00:44.395Z,102857.37
2023-02-04T22:03:17.197Z,102855.59
2023-02-04T22:05:45.836Z,102857.37
2023-02-04T22:08:15.473Z,102858.25
2023-02-04T22:10:43.479Z,102855.59
2023-02-04T22:13:29.095Z,102861.75
2023-02-04T22:15:57.477Z,102862.62
2023-02-04T22:18:25.456Z,102860.87
2023-02-04T22:20:53.447Z,102865.25
2023-02-04T22:23:23.149Z,102855.62
2023-02-04T22:25:51.127Z,102860.87
2023-02-04T22:28:19.254Z,102859.12
2023-02-04T22:30:47.748Z,102855.62
2023-02-04T22:33:15.800Z,102851.22
2023-02-04T22:35:43.772Z,102845.09
2023-02-04T22:38:12.101Z,102839.84
2023-02-04T22:40:41.478Z,102834.56
2023-02-04T22:43:09.407Z,102837.16
2023-02-04T22:45:37.799Z,102844.19
2023-02-04T22:48:05.872Z,102850.31
2023-02-04T22:50:33.842Z,102854.66
2023-02-04T22:53:02.029Z,102850.25
2023-02-04T22:55:30.045Z,102851.09
2023-02-04T22:57:59.319Z,102852.84
2023-02-04T23:00:27.940Z,102853.66
2023-02-04T23:02:56.395Z,102858.03
2023-02-04T23:05:24.687Z,102854.50
2023-02-04T23:07:53.032Z,102855.38
2023-02-04T23:10:21.044Z,102854.44
2023-02-04T23:12:49.033Z,102860.53
2023-02-04T23:15:18.714Z,102858.78
2023-02-04T23:17:46.795Z,102853.53
2023-02-04T23:20:14.958Z,102856.97
2023-02-04T23:22:43.325Z,102856.09
2023-02-04T23:25:11.416Z,102867.47
2023-02-04T23:27:39.814Z,102853.47
2023-02-04T23:30:10.553Z,102858.66
2023-02-04T23:32:39.858Z,102856.03
2023-02-04T23:35:08.942Z,102855.12
2023-02-04T23:37:37.332Z,102858.53
2023-02-04T23:40:06.291Z,102851.47
2023-02-04T23:42:34.727Z,102854.03
2023-02-04T23:45:02.806Z,102847.91
2023-02-04T23:47:30.915Z,102850.50
2023-02-04T23:50:00.519Z,102854.91
2023-02-04T23:52:29.438Z,102847.03
2023-02-04T23:54:57.615Z,102850.53
2023-02-04T23:57:25.839Z,102841.78
2023-02-04T23:59:53.866Z,102848.69
